Time;durP1;ratioP1;P1;durP2;ratioP2;P2;SDS_P1;SDS_P2;PMS_P1;PMS_P2;Temp;Humidity;BMP_temperature;BMP_pressure;BME280_temperature;BME280_humidity;BME280_pressure;Samples;Min_cycle;Max_cycle;Signal;HPM_P1;HPM_P2
2021/08/17 00:00:17;;;;;;;;;;;;;;;20.23;77.80;98990.63;5114611;28;19963;-69
2021/08/17 00:02:46;;;;;;;;;;;;;;;20.20;77.64;99001.09;5114586;28;19924;-69
2021/08/17 00:05:17;;;;;;;;;;;;;;;20.12;78.04;99018.78;5114633;28;20026;-71
2021/08/17 00:07:46;;;;;;;;;;;;;;;20.05;78.22;99024.28;5114865;28;19928;-72
2021/08/17 00:10:15;;;;;;;;;;;;;;;20.04;78.11;99032.09;5114560;28;19969;-71
2021/08/17 00:12:44;;;;;;;;;;;;;;;20.02;78.43;99034.78;5114836;28;20427;-70
2021/08/17 00:15:12;;;;;;;;;;;;;;;20.12;78.12;99053.31;5114303;28;20018;-73
2021/08/17 00:17:41;;;;;;;;;;;;;;;20.12;77.64;99058.50;5114344;28;19969;-73
2021/08/17 00:20:10;;;;;;;;;;;;;;;20.02;77.77;99065.88;5114459;28;19951;-72
2021/08/17 00:22:41;;;;;;;;;;;;;;;19.89;78.14;99066.56;5114396;28;20436;-69
2021/08/17 00:25:11;;;;;;;;;;;;;;;19.88;78.33;99060.53;5114461;28;20376;-70
2021/08/17 00:27:40;;;;;;;;;;;;;;;19.84;78.39;99046.03;5114747;28;20010;-71
2021/08/17 00:30:10;;;;;;;;;;;;;;;19.83;78.68;99031.41;5114377;28;19955;-71
2021/08/17 00:32:38;;;;;;;;;;;;;;;19.73;78.62;99043.13;5114410;28;19924;-71
2021/08/17 00:35:08;;;;;;;;;;;;;;;19.77;78.58;99064.56;5114637;28;19924;-70
2021/08/17 00:37:36;;;;;;;;;;;;;;;19.51;78.68;99078.69;5114170;28;19931;-70
2021/08/17 00:40:07;;;;;;;;;;;;;;;19.47;79.03;99082.34;5114340;28;20010;-70
2021/08/17 00:42:39;;;;;;;;;;;;;;;19.36;79.00;99092.38;5114270;28;19924;-70
2021/08/17 00:45:09;;;;;;;;;;;;;;;19.24;79.31;99098.06;5114339;28;19924;-72
2021/08/17 00:47:37;;;;;;;;;;;;;;;19.21;79.85;99114.56;5096268;28;19924;-75
2021/08/17 00:50:07;;;;;;;;;;;;;;;19.13;80.13;99123.56;5114264;28;20432;-74
2021/08/17 00:52:35;;;;;;;;;;;;;;;19.07;80.47;99139.38;5114182;28;19928;-73
2021/08/17 00:55:04;;;;;;;;;;;;;;;19.16;80.70;99144.97;5114454;28;19924;-72
2021/08/17 00:57:34;;;;;;;;;;;;;;;19.30;80.17;99152.13;5114314;28;19924;-71
2021/08/17 01:00:05;;;;;;;;;;;;;;;19.43;79.72;99163.66;5114075;28;19931;-72
2021/08/17 01:02:39;;;;;;;;;;;;;;;19.52;79.32;99163.22;5099445;28;19930;-71
2021/08/17 01:05:09;;;;;;;;;;;;;;;19.57;79.26;99161.28;5118250;28;19924;-73
2021/08/17 01:07:39;;;;;;;;;;;;;;;19.57;79.51;99161.28;5099666;28;19962;-71
2021/08/17 01:10:08;;;;;;;;;;;;;;;19.56;80.01;99169.94;5133668;27;19931;-72
2021/08/17 01:12:39;;;;;;;;;;;;;;;19.55;80.19;99177.78;5117721;28;19928;-72
2021/08/17 01:15:08;;;;;;;;;;;;;;;19.59;80.31;99200.88;5117693;28;19924;-72
2021/08/17 01:17:37;;;;;;;;;;;;;;;19.66;80.60;99217.81;5117526;28;19931;-73
2021/08/17 01:20:06;;;;;;;;;;;;;;;19.69;80.54;99222.88;5117794;28;20026;-74
2021/08/17 01:22:35;;;;;;;;;;;;;;;19.74;80.68;99218.31;5117602;28;20372;-72
2021/08/17 01:25:04;;;;;;;;;;;;;;;19.77;80.63;99209.59;5118152;28;20026;-73
2021/08/17 01:27:34;;;;;;;;;;;;;;;19.80;80.62;99210.25;5117452;28;19930;-72
2021/08/17 01:30:03;;;;;;;;;;;;;;;19.79;80.57;99198.25;5117711;28;19923;-73
2021/08/17 01:32:31;;;;;;;;;;;;;;;19.80;80.72;99175.75;5133701;27;19930;-70
2021/08/17 01:35:00;;;;;;;;;;;;;;;19.77;80.88;99152.59;5117645;28;20357;-72
2021/08/17 01:37:29;;;;;;;;;;;;;;;19.80;80.81;99136.91;5117526;28;19931;-71
2021/08/17 01:40:01;;;;;;;;;;;;;;;19.82;80.94;99119.56;5117513;28;19924;-71
2021/08/17 01:42:30;;;;;;;;;;;;;;;19.87;81.12;99089.91;5117603;28;19924;-72
2021/08/17 01:45:00;;;;;;;;;;;;;;;19.89;81.19;99041.47;5117113;28;20011;-71
2021/08/17 01:47:29;;;;;;;;;;;;;;;19.89;81.15;98986.25;5117485;28;19965;-71
2021/08/17 01:49:59;;;;;;;;;;;;;;;19.85;81.01;98972.59;5117653;28;20444;-72
2021/08/17 01:52:28;;;;;;;;;;;;;;;19.80;81.00;98956.44;5117030;28;19947;-70
2021/08/17 01:54:57;;;;;;;;;;;;;;;19.80;81.26;98966.81;5116983;28;19973;-69
2021/08/17 01:57:27;;;;;;;;;;;;;;;19.74;81.48;98961.94;5117465;28;19972;-70
2021/08/17 01:59:55;;;;;;;;;;;;;;;19.77;81.63;98951.41;5117160;28;19924;-70
2021/08/17 02:02:25;;;;;;;;;;;;;;;19.75;81.63;98973.13;5116732;28;20017;-70
2021/08/17 02:04:54;;;;;;;;;;;;;;;19.74;81.86;98998.22;5116886;28;20437;-71
2021/08/17 02:07:23;;;;;;;;;;;;;;;19.65;82.07;99011.56;5116977;28;19946;-70
2021/08/17 02:09:52;;;;;;;;;;;;;;;19.66;82.26;99020.19;5116996;28;20019;-71
2021/08/17 02:12:21;;;;;;;;;;;;;;;19.71;82.37;99042.38;5116428;28;19951;-69
2021/08/17 02:14:50;;;;;;;;;;;;;;;19.71;82.33;99059.66;5116297;28;19923;-70
2021/08/17 02:17:18;;;;;;;;;;;;;;;19.68;82.21;99065.81;5116443;28;20270;-72
2021/08/17 02:19:48;;;;;;;;;;;;;;;19.61;82.09;99085.13;5116484;28;19924;-71
2021/08/17 02:22:17;;;;;;;;;;;;;;;19.54;82.24;99088.06;5116749;28;19932;-69
2021/08/17 02:24:45;;;;;;;;;;;;;;;19.64;82.62;99076.38;5116679;28;19927;-70
2021/08/17 02:27:14;;;;;;;;;;;;;;;19.64;82.22;99090.19;5116303;28;19928;-70
2021/08/17 02:29:43;;;;;;;;;;;;;;;19.57;81.93;99099.16;5116658;28;19990;-69
2021/08/17 02:32:12;;;;;;;;;;;;;;;19.57;81.82;99114.69;5116217;28;20022;-71
2021/08/17 02:34:40;;;;;;;;;;;;;;;19.59;82.17;99120.63;5116185;28;19924;-70
2021/08/17 02:37:10;;;;;;;;;;;;;;;19.62;81.80;99120.50;5116119;28;20034;-70
2021/08/17 02:39:39;;;;;;;;;;;;;;;19.63;81.75;99121.31;5097829;28;19924;-72
2021/08/17 02:42:08;;;;;;;;;;;;;;;19.55;81.60;99126.88;5116232;28;19924;-71
2021/08/17 02:44:37;;;;;;;;;;;;;;;19.54;81.73;99125.16;5116006;28;20367;-72
2021/08/17 02:47:05;;;;;;;;;;;;;;;19.58;81.41;99131.88;5116189;28;20022;-70
2021/08/17 02:49:34;;;;;;;;;;;;;;;19.56;81.23;99123.34;5097634;28;20347;-72
2021/08/17 02:52:04;;;;;;;;;;;;;;;19.50;81.29;99108.09;5116072;28;19959;-70
2021/08/17 02:54:35;;;;;;;;;;;;;;;19.49;81.64;99088.28;5115696;28;19930;-72
2021/08/17 02:57:04;;;;;;;;;;;;;;;19.60;81.74;99075.72;5116093;28;19924;-71
2021/08/17 02:59:32;;;;;;;;;;;;;;;19.69;81.43;99053.72;5116315;28;19924;-70
2021/08/17 03:02:01;;;;;;;;;;;;;;;19.67;81.32;99069.31;5115531;28;19924;-69
2021/08/17 03:04:30;;;;;;;;;;;;;;;19.54;80.99;99096.69;5115622;28;19924;-71
2021/08/17 03:06:58;;;;;;;;;;;;;;;19.55;81.71;99121.69;5115876;28;19928;-72
2021/08/17 03:09:27;;;;;;;;;;;;;;;19.59;81.57;99138.75;5115546;28;20357;-72
2021/08/17 03:11:57;;;;;;;;;;;;;;;19.50;81.69;99139.16;5115767;28;19984;-70
2021/08/17 03:14:26;;;;;;;;;;;;;;;19.45;81.68;99141.13;5115253;28;19930;-69
2021/08/17 03:16:55;;;;;;;;;;;;;;;19.54;81.74;99140.69;5115319;28;19953;-71
2021/08/17 03:19:24;;;;;;;;;;;;;;;19.59;81.62;99123.22;5115215;28;20351;-70
2021/08/17 03:21:52;;;;;;;;;;;;;;;19.62;81.39;99092.00;5115617;28;19932;-69
2021/08/17 03:24:21;;;;;;;;;;;;;;;19.55;81.62;99106.16;5114837;28;20351;-69
2021/08/17 03:26:50;;;;;;;;;;;;;;;19.50;81.94;99126.22;5115379;28;19924;-69
2021/08/17 03:29:21;;;;;;;;;;;;;;;19.49;81.94;99128.88;5115477;28;19924;-69
2021/08/17 03:31:49;;;;;;;;;;;;;;;19.50;81.75;99130.56;5115725;28;19930;-69
2021/08/17 03:34:18;;;;;;;;;;;;;;;19.47;81.93;99135.88;5114991;28;19924;-72
2021/08/17 03:36:47;;;;;;;;;;;;;;;19.38;81.37;99157.84;5115325;28;19924;-71
2021/08/17 03:39:15;;;;;;;;;;;;;;;19.43;81.33;99160.22;5114845;28;19928;-70
2021/08/17 03:41:44;;;;;;;;;;;;;;;19.52;81.43;99163.22;5114960;28;19930;-72
2021/08/17 03:44:12;;;;;;;;;;;;;;;19.51;81.58;99158.13;5114783;28;19953;-70
2021/08/17 03:46:43;;;;;;;;;;;;;;;19.52;81.78;99158.06;5115393;28;19924;-69
2021/08/17 03:49:11;;;;;;;;;;;;;;;19.45;81.87;99161.00;5114788;28;19924;-69
2021/08/17 03:51:40;;;;;;;;;;;;;;;19.40;81.70;99168.97;5096567;28;20468;-71
2021/08/17 03:54:09;;;;;;;;;;;;;;;19.42;81.72;99169.72;5114863;28;19924;-71
2021/08/17 03:56:37;;;;;;;;;;;;;;;19.45;81.59;99177.38;5115023;28;19970;-71
2021/08/17 03:59:06;;;;;;;;;;;;;;;19.46;81.56;99184.19;5114872;28;19936;-71
2021/08/17 04:01:35;;;;;;;;;;;;;;;19.49;81.62;99178.91;5114706;28;19970;-71
2021/08/17 04:04:05;;;;;;;;;;;;;;;19.48;81.35;99177.22;5114792;28;20396;-69
2021/08/17 04:06:34;;;;;;;;;;;;;;;19.47;81.92;99191.06;5114642;28;19924;-70
2021/08/17 04:09:03;;;;;;;;;;;;;;;19.47;81.56;99182.47;5114607;28;19924;-70
2021/08/17 04:11:31;;;;;;;;;;;;;;;19.46;81.68;99189.38;5114474;28;20019;-71
2021/08/17 04:14:00;;;;;;;;;;;;;;;19.45;81.59;99192.91;5075944;28;19963;-72
2021/08/17 04:16:29;;;;;;;;;;;;;;;19.45;81.26;99190.31;5114455;28;19924;-71
2021/08/17 04:18:57;;;;;;;;;;;;;;;19.44;81.74;99191.19;5130335;28;19924;-71
2021/08/17 04:21:27;;;;;;;;;;;;;;;19.46;81.41;99189.38;5115047;28;19928;-70
2021/08/17 04:23:59;;;;;;;;;;;;;;;19.49;81.48;99183.22;5114367;28;19934;-72
2021/08/17 04:26:28;;;;;;;;;;;;;;;19.47;81.38;99175.53;5114472;28;19973;-70
2021/08/17 04:28:56;;;;;;;;;;;;;;;19.49;81.15;99165.09;5114695;28;20018;-73
2021/08/17 04:31:25;;;;;;;;;;;;;;;19.50;81.37;99167.66;5114592;28;19931;-69
2021/08/17 04:33:54;;;;;;;;;;;;;;;19.52;81.21;99178.78;5114355;28;19924;-73
2021/08/17 04:36:22;;;;;;;;;;;;;;;19.45;81.13;99192.91;5115968;28;20030;-70
2021/08/17 04:38:52;;;;;;;;;;;;;;;19.37;81.09;99194.97;5118679;28;19924;-72
2021/08/17 04:41:21;;;;;;;;;;;;;;;19.39;80.91;99193.16;5118385;28;20007;-74
2021/08/17 04:43:50;;;;;;;;;;;;;;;19.44;80.87;99186.03;5118274;28;19930;-72
2021/08/17 04:46:18;;;;;;;;;;;;;;;19.42;80.83;99172.31;5118292;28;19924;-71
2021/08/17 04:48:49;;;;;;;;;;;;;;;19.53;80.69;99167.50;5118561;28;19938;-72
2021/08/17 04:51:18;;;;;;;;;;;;;;;19.53;80.06;99162.31;5118330;28;19924;-71
2021/08/17 04:53:47;;;;;;;;;;;;;;;19.50;80.21;99164.22;5100091;28;19924;-71
2021/08/17 04:56:18;;;;;;;;;;;;;;;19.57;79.98;99170.78;5118001;28;19924;-70
2021/08/17 04:58:46;;;;;;;;;;;;;;;19.61;79.74;99167.16;5118276;28;19970;-71
2021/08/17 05:01:15;;;;;;;;;;;;;;;19.66;79.80;99168.63;5118039;28;20010;-71
2021/08/17 05:03:44;;;;;;;;;;;;;;;19.73;79.63;99167.44;5099726;28;20026;-70
2021/08/17 05:06:17;;;;;;;;;;;;;;;19.75;79.58;99157.84;5099605;28;20365;-73
2021/08/17 05:08:45;;;;;;;;;;;;;;;19.74;79.20;99168.28;5118177;28;19928;-72
2021/08/17 05:11:14;;;;;;;;;;;;;;;19.68;79.16;99184.91;5118108;28;19931;-72
2021/08/17 05:13:44;;;;;;;;;;;;;;;19.67;79.17;99188.44;5099935;28;20022;-74
2021/08/17 05:16:12;;;;;;;;;;;;;;;19.62;78.92;99200.75;5099382;28;20377;-72
2021/08/17 05:18:41;;;;;;;;;;;;;;;19.53;78.86;99206.31;5117687;28;19931;-72
2021/08/17 05:21:10;;;;;;;;;;;;;;;19.52;79.22;99222.78;5099380;28;19924;-71
2021/08/17 05:23:38;;;;;;;;;;;;;;;19.54;78.96;99218.38;5117612;28;20372;-72
2021/08/17 05:26:08;;;;;;;;;;;;;;;19.51;79.09;99218.50;5117429;28;19924;-73
2021/08/17 05:28:36;;;;;;;;;;;;;;;19.50;78.81;99226.34;5118096;28;19927;-72
2021/08/17 05:31:08;;;;;;;;;;;;;;;19.46;78.77;99233.38;5117382;28;20467;-72
2021/08/17 05:33:36;;;;;;;;;;;;;;;19.45;78.95;99229.13;5117455;28;19924;-73
2021/08/17 05:36:05;;;;;;;;;;;;;;;19.39;78.58;99229.38;5117256;28;20174;-71
2021/08/17 05:38:35;;;;;;;;;;;;;;;19.45;78.70;99229.13;5117395;28;19924;-74
2021/08/17 05:41:04;;;;;;;;;;;;;;;19.46;78.65;99235.97;5117320;28;19924;-72
2021/08/17 05:43:32;;;;;;;;;;;;;;;19.32;78.30;99235.72;5117465;28;19974;-71
2021/08/17 05:46:07;;;;;;;;;;;;;;;19.28;78.51;99236.75;5133007;27;20412;-71
2021/08/17 05:48:41;;;;;;;;;;;;;;;19.24;78.67;99240.41;5116919;28;19974;-74
2021/08/17 05:51:11;;;;;;;;;;;;;;;19.23;78.66;99238.69;5117024;28;19923;-71
2021/08/17 05:53:39;;;;;;;;;;;;;;;19.18;78.78;99240.63;5116951;28;19977;-73
2021/08/17 05:56:08;;;;;;;;;;;;;;;19.12;78.93;99248.66;5116911;28;19974;-70
2021/08/17 05:58:36;;;;;;;;;;;;;;;19.07;79.22;99254.03;5116763;28;19953;-73
2021/08/17 06:01:05;;;;;;;;;;;;;;;19.11;79.04;99265.09;5116784;28;19924;-71
2021/08/17 06:03:53;;;;;;;;;;;;;;;19.21;79.05;99275.00;5116861;28;19924;-73
2021/08/17 06:06:22;;;;;;;;;;;;;;;19.28;79.04;99283.34;5098584;28;19966;-71
2021/08/17 06:08:51;;;;;;;;;;;;;;;19.28;78.74;99285.94;5116642;28;19970;-72
2021/08/17 06:11:20;;;;;;;;;;;;;;;19.22;78.70;99284.44;5116634;28;19923;-72
2021/08/17 06:13:51;;;;;;;;;;;;;;;19.15;78.31;99276.97;5098298;28;19924;-72
2021/08/17 06:16:19;;;;;;;;;;;;;;;19.16;78.58;99294.19;5116659;28;19924;-73
2021/08/17 06:18:48;;;;;;;;;;;;;;;19.12;78.21;99293.47;5116433;28;19931;-73
2021/08/17 06:21:19;;;;;;;;;;;;;;;19.14;77.58;99283.09;5116373;28;19927;-74
2021/08/17 06:23:47;;;;;;;;;;;;;;;19.18;77.23;99287.22;5116845;28;19924;-74
2021/08/17 06:26:16;;;;;;;;;;;;;;;19.12;76.63;99282.31;5116340;28;19928;-71
2021/08/17 06:28:46;;;;;;;;;;;;;;;19.16;76.31;99283.84;5116530;28;19928;-72
2021/08/17 06:31:18;;;;;;;;;;;;;;;19.24;75.46;99276.63;5098748;28;20405;-73
2021/08/17 06:33:47;;;;;;;;;;;;;;;19.25;75.07;99283.47;5116173;28;19973;-73
2021/08/17 06:36:16;;;;;;;;;;;;;;;19.35;74.29;99284.75;5116121;28;19927;-72
2021/08/17 06:38:46;;;;;;;;;;;;;;;19.47;73.76;99301.53;5116198;28;19924;-72
2021/08/17 06:41:15;;;;;;;;;;;;;;;19.54;73.43;99311.56;5115907;28;19969;-73
2021/08/17 06:43:44;;;;;;;;;;;;;;;19.52;73.02;99308.22;5115852;28;20018;-71
2021/08/17 06:46:13;;;;;;;;;;;;;;;19.48;72.24;99311.84;5115898;28;19924;-72
2021/08/17 06:48:41;;;;;;;;;;;;;;;19.45;72.01;99313.72;5115875;28;19924;-72
2021/08/17 06:51:10;;;;;;;;;;;;;;;19.49;71.72;99321.28;5115674;28;19955;-74
2021/08/17 06:53:39;;;;;;;;;;;;;;;19.31;70.77;99324.63;5097726;28;19924;-72
2021/08/17 06:56:10;;;;;;;;;;;;;;;19.17;70.44;99326.94;5097688;28;19927;-71
2021/08/17 06:58:39;;;;;;;;;;;;;;;19.17;70.30;99329.53;5115238;28;19924;-71
2021/08/17 07:01:07;;;;;;;;;;;;;;;19.21;69.77;99351.78;5115436;28;20377;-72
2021/08/17 07:03:36;;;;;;;;;;;;;;;19.19;69.58;99366.53;5115587;28;20380;-74
2021/08/17 07:06:05;;;;;;;;;;;;;;;19.27;69.30;99374.81;5115584;28;19923;-73
2021/08/17 07:08:34;;;;;;;;;;;;;;;19.23;68.25;99378.44;5115416;28;20011;-74
2021/08/17 07:11:04;;;;;;;;;;;;;;;19.26;67.81;99393.84;5131406;27;19924;-72
2021/08/17 07:13:34;;;;;;;;;;;;;;;19.40;67.85;99399.31;5115350;28;20022;-71
2021/08/17 07:16:03;;;;;;;;;;;;;;;19.48;67.17;99411.97;5115291;28;19977;-72
2021/08/17 07:18:35;;;;;;;;;;;;;;;19.48;66.64;99425.75;5115250;28;19924;-73
2021/08/17 07:21:05;;;;;;;;;;;;;;;19.34;65.89;99446.13;5115711;28;19931;-72
2021/08/17 07:23:33;;;;;;;;;;;;;;;19.32;65.18;99450.50;5115823;28;20315;-73
2021/08/17 07:26:02;;;;;;;;;;;;;;;19.44;65.48;99455.25;5115367;28;20019;-73
2021/08/17 07:28:31;;;;;;;;;;;;;;;19.56;63.70;99454.75;5096939;28;20018;-74
2021/08/17 07:31:01;;;;;;;;;;;;;;;19.98;63.43;99463.34;5115039;28;19923;-73
2021/08/17 07:33:30;;;;;;;;;;;;;;;20.40;62.66;99463.25;5115610;28;19923;-74
2021/08/17 07:35:59;;;;;;;;;;;;;;;20.86;60.87;99469.81;5114926;28;19924;-72
2021/08/17 07:38:28;;;;;;;;;;;;;;;21.12;59.29;99472.06;5115119;28;19930;-73
2021/08/17 07:41:00;;;;;;;;;;;;;;;21.27;58.57;99478.28;5114862;28;19932;-73
2021/08/17 07:43:32;;;;;;;;;;;;;;;21.58;58.13;99481.09;5115086;28;20327;-73
2021/08/17 07:46:02;;;;;;;;;;;;;;;21.48;57.44;99492.00;5114970;28;19924;-73
2021/08/17 07:48:46;;;;;;;;;;;;;;;21.29;57.50;99503.28;5115132;28;19927;-72
2021/08/17 07:51:15;;;;;;;;;;;;;;;21.21;57.05;99492.41;5115216;28;20392;-71
2021/08/17 07:53:43;;;;;;;;;;;;;;;21.62;57.55;99502.59;5114656;28;20308;-73
2021/08/17 07:56:12;;;;;;;;;;;;;;;21.88;57.14;99497.00;5114907;28;19923;-73
2021/08/17 07:58:45;;;;;;;;;;;;;;;21.86;56.52;99496.19;5114736;28;19951;-72
2021/08/17 08:01:16;;;;;;;;;;;;;;;22.02;56.44;99486.75;5114486;28;19931;-71
2021/08/17 08:03:45;;;;;;;;;;;;;;;22.16;55.90;99484.28;5096433;28;20403;-72
2021/08/17 08:06:16;;;;;;;;;;;;;;;22.33;56.32;99481.66;5114229;28;19938;-73
2021/08/17 08:08:44;;;;;;;;;;;;;;;22.62;55.76;99490.56;5114510;28;19932;-71
2021/08/17 08:11:13;;;;;;;;;;;;;;;22.57;54.55;99480.38;5114580;28;19924;-73
2021/08/17 08:13:42;;;;;;;;;;;;;;;22.46;54.21;99495.69;5096222;28;19924;-72
2021/08/17 08:16:10;;;;;;;;;;;;;;;22.64;53.89;99502.59;5114495;28;20300;-73
2021/08/17 08:18:41;;;;;;;;;;;;;;;22.71;54.16;99491.84;5114497;28;19924;-73
2021/08/17 08:21:14;;;;;;;;;;;;;;;22.71;54.53;99497.03;5114208;28;19928;-73
2021/08/17 08:23:42;;;;;;;;;;;;;;;22.76;54.37;99505.44;5114202;28;19924;-72
2021/08/17 08:26:11;;;;;;;;;;;;;;;22.98;54.66;99508.59;5114115;28;19924;-71
2021/08/17 08:28:39;;;;;;;;;;;;;;;23.13;54.03;99499.97;5114186;28;19923;-71
2021/08/17 08:31:08;;;;;;;;;;;;;;;23.19;53.62;99516.06;5114330;28;19982;-71
2021/08/17 08:33:37;;;;;;;;;;;;;;;22.98;54.22;99519.00;5114143;28;19969;-71
2021/08/17 08:36:09;;;;;;;;;;;;;;;22.71;54.73;99516.09;5114125;28;20327;-74
2021/08/17 08:38:38;;;;;;;;;;;;;;;22.35;53.98;99520.59;5114392;28;19939;-71
2021/08/17 08:41:07;;;;;;;;;;;;;;;22.01;54.45;99518.84;5113987;28;19970;-73
2021/08/17 08:43:35;;;;;;;;;;;;;;;21.88;54.49;99522.97;5113860;28;20305;-71
2021/08/17 08:46:05;;;;;;;;;;;;;;;21.69;54.75;99529.97;5114014;28;19930;-72
2021/08/17 08:48:34;;;;;;;;;;;;;;;21.42;55.55;99536.47;5113860;28;19930;-73
2021/08/17 08:51:04;;;;;;;;;;;;;;;21.23;55.44;99558.09;5113905;28;19928;-74
2021/08/17 08:53:35;;;;;;;;;;;;;;;21.13;56.18;99546.44;5095639;28;19923;-73
2021/08/17 08:56:03;;;;;;;;;;;;;;;21.32;55.80;99551.63;5114154;28;19973;-72
2021/08/17 08:58:32;;;;;;;;;;;;;;;21.38;55.04;99552.19;5113922;28;19977;-71
2021/08/17 09:01:02;;;;;;;;;;;;;;;21.45;54.95;99551.91;5114050;28;19928;-73
2021/08/17 09:03:41;;;;;;;;;;;;;;;21.35;56.04;99551.50;5095613;28;19924;-71
2021/08/17 09:06:17;;;;;;;;;;;;;;;21.27;56.12;99551.84;5113978;28;19930;-74
2021/08/17 09:08:48;;;;;;;;;;;;;;;21.31;56.13;99561.16;5113892;28;20384;-74
2021/08/17 09:11:18;;;;;;;;;;;;;;;21.23;55.83;99568.47;5114313;28;19924;-71
2021/08/17 09:13:47;;;;;;;;;;;;;;;21.01;55.18;99575.53;5113524;28;19963;-73
2021/08/17 09:16:26;;;;;;;;;;;;;;;20.81;54.93;99575.56;5113955;28;19923;-73
2021/08/17 09:18:55;;;;;;;;;;;;;;;20.60;55.27;99584.28;5113954;28;19923;-74
2021/08/17 09:21:34;;;;;;;;;;;;;;;20.50;55.15;99585.56;5113675;28;19924;-72
2021/08/17 09:24:15;;;;;;;;;;;;;;;20.49;55.12;99589.91;5117410;28;19924;-73
2021/08/17 09:26:47;;;;;;;;;;;;;;;20.45;55.93;99592.69;5117195;28;19968;-73
2021/08/17 09:29:24;;;;;;;;;;;;;;;20.44;55.33;99576.28;5117306;28;19923;-73
2021/08/17 09:31:54;;;;;;;;;;;;;;;20.50;54.79;99585.56;5133085;27;20377;-72
2021/08/17 09:34:30;;;;;;;;;;;;;;;20.55;54.34;99570.66;5117299;28;19976;-73
2021/08/17 09:37:01;;;;;;;;;;;;;;;20.53;54.61;99575.91;5117074;28;20329;-72
2021/08/17 09:39:33;;;;;;;;;;;;;;;20.71;54.13;99579.44;5098713;28;19946;-72
2021/08/17 09:42:13;;;;;;;;;;;;;;;20.65;53.13;99595.28;5117010;28;19924;-74
2021/08/17 09:44:42;;;;;;;;;;;;;;;20.55;52.85;99604.38;5098763;28;19976;-72
2021/08/17 09:47:11;;;;;;;;;;;;;;;20.42;52.68;99592.84;5117132;28;19967;-72
2021/08/17 09:49:39;;;;;;;;;;;;;;;20.27;53.53;99603.84;5116732;28;19924;-71
2021/08/17 09:52:10;;;;;;;;;;;;;;;20.11;53.62;99607.94;5116855;28;20284;-73
2021/08/17 09:54:42;;;;;;;;;;;;;;;19.94;53.60;99612.03;5116935;28;20022;-71
2021/08/17 09:57:11;;;;;;;;;;;;;;;19.87;53.81;99614.94;5098628;28;19923;-72
2021/08/17 09:59:41;;;;;;;;;;;;;;;19.80;53.39;99622.09;5117105;28;20341;-73
2021/08/17 10:02:10;;;;;;;;;;;;;;;19.88;53.53;99620.06;5132952;27;19931;-71
2021/08/17 10:04:39;;;;;;;;;;;;;;;19.94;53.76;99617.22;5116715;28;19934;-72
2021/08/17 10:07:11;;;;;;;;;;;;;;;20.15;53.22;99635.41;5116649;28;19927;-71
2021/08/17 10:09:42;;;;;;;;;;;;;;;20.35;52.13;99633.72;5116491;28;19924;-72
2021/08/17 10:12:11;;;;;;;;;;;;;;;20.79;53.24;99638.78;5116513;28;19970;-72
2021/08/17 10:14:40;;;;;;;;;;;;;;;20.98;51.83;99635.34;5116263;28;19924;-73
2021/08/17 10:17:09;;;;;;;;;;;;;;;21.01;50.97;99635.22;5116561;28;20338;-72
2021/08/17 10:19:38;;;;;;;;;;;;;;;21.15;50.56;99627.69;5081480;28;20456;-71
2021/08/17 10:22:07;;;;;;;;;;;;;;;21.72;50.83;99644.09;5116386;28;19924;-72
2021/08/17 10:24:40;;;;;;;;;;;;;;;22.12;49.13;99648.31;5116311;28;19924;-71
2021/08/17 10:27:17;;;;;;;;;;;;;;;22.57;48.70;99646.91;5116450;28;19928;-71
2021/08/17 10:29:56;;;;;;;;;;;;;;;22.91;48.25;99648.66;5116322;28;19928;-70
2021/08/17 10:32:36;;;;;;;;;;;;;;;23.25;47.80;99639.94;5115971;28;19924;-73
2021/08/17 10:35:06;;;;;;;;;;;;;;;23.01;47.47;99636.81;5116539;28;20300;-73
2021/08/17 10:37:35;;;;;;;;;;;;;;;22.68;47.51;99644.63;5116323;28;19923;-71
2021/08/17 10:40:04;;;;;;;;;;;;;;;22.84;47.35;99646.44;5116142;28;19976;-71
2021/08/17 10:42:34;;;;;;;;;;;;;;;22.86;48.00;99658.47;5115746;28;19930;-71
2021/08/17 10:45:13;;;;;;;;;;;;;;;22.34;48.43;99661.97;5115958;28;19924;-71
2021/08/17 10:47:43;;;;;;;;;;;;;;;22.07;48.91;99650.28;5115763;28;19924;-71
2021/08/17 10:50:30;;;;;;;;;;;;;;;21.79;49.69;99653.31;5115793;28;20373;-72
2021/08/17 10:52:58;;;;;;;;;;;;;;;21.77;49.71;99652.53;5097484;28;19928;-71
2021/08/17 10:55:34;;;;;;;;;;;;;;;22.00;50.09;99647.97;5115604;28;19923;-71
2021/08/17 10:58:06;;;;;;;;;;;;;;;22.72;49.64;99654.88;5115694;28;19924;-70
2021/08/17 11:00:46;;;;;;;;;;;;;;;23.18;48.31;99651.56;5097364;28;19924;-71
2021/08/17 11:03:16;;;;;;;;;;;;;;;23.21;48.05;99654.03;5115348;28;19951;-73
2021/08/17 11:05:51;;;;;;;;;;;;;;;23.26;47.58;99662.44;5115287;28;19977;-70
2021/08/17 11:08:31;;;;;;;;;;;;;;;23.07;48.40;99646.09;5115473;28;20003;-68
2021/08/17 11:11:00;;;;;;;;;;;;;;;22.79;47.87;99656.25;5115743;28;19935;-70
2021/08/17 11:13:30;;;;;;;;;;;;;;;22.76;48.43;99672.00;5115228;28;19924;-71
2021/08/17 11:16:09;;;;;;;;;;;;;;;22.51;47.81;99672.34;5115113;28;20335;-71
2021/08/17 11:18:49;;;;;;;;;;;;;;;22.70;46.85;99667.13;5115377;28;20277;-71
2021/08/17 11:21:29;;;;;;;;;;;;;;;22.82;46.80;99661.31;5115334;28;20423;-71
2021/08/17 11:24:09;;;;;;;;;;;;;;;22.72;47.59;99662.69;5115147;28;20031;-74
2021/08/17 11:26:38;;;;;;;;;;;;;;;22.55;47.79;99674.75;5114960;28;19924;-73
2021/08/17 11:29:09;;;;;;;;;;;;;;;22.27;48.85;99668.34;5115082;28;20038;-72
2021/08/17 11:31:45;;;;;;;;;;;;;;;22.13;48.18;99666.44;5114824;28;19924;-71
2021/08/17 11:34:16;;;;;;;;;;;;;;;22.13;47.81;99676.81;5114859;28;19923;-71
2021/08/17 11:36:52;;;;;;;;;;;;;;;22.09;47.33;99670.09;5115182;28;19923;-73
2021/08/17 11:39:22;;;;;;;;;;;;;;;22.41;47.72;99674.56;5096616;28;19935;-72
2021/08/17 11:41:51;;;;;;;;;;;;;;;22.77;46.81;99682.34;5114792;28;19934;-71
2021/08/17 11:44:21;;;;;;;;;;;;;;;22.97;47.57;99682.19;5114522;28;20342;-71
2021/08/17 11:46:50;;;;;;;;;;;;;;;22.74;47.23;99684.25;5114898;28;19954;-71
2021/08/17 11:49:22;;;;;;;;;;;;;;;22.47;47.46;99692.50;5114687;28;19970;-71
2021/08/17 11:52:01;;;;;;;;;;;;;;;22.72;47.13;99691.31;5096442;28;20305;-71
2021/08/17 11:54:31;;;;;;;;;;;;;;;23.69;46.18;99682.69;5114705;28;19928;-70
2021/08/17 11:57:13;;;;;;;;;;;;;;;23.88;45.04;99672.94;5114518;28;19924;-70
2021/08/17 11:59:44;;;;;;;;;;;;;;;23.39;45.54;99679.16;5114351;28;20035;-72
2021/08/17 12:02:19;;;;;;;;;;;;;;;22.93;45.72;99680.66;5113859;28;19924;-73
2021/08/17 12:04:51;;;;;;;;;;;;;;;22.63;46.22;99676.97;5114490;28;19938;-73
2021/08/17 12:07:21;;;;;;;;;;;;;;;22.38;46.75;99666.09;5114576;28;19923;-73
2021/08/17 12:09:49;;;;;;;;;;;;;;;22.69;46.50;99671.50;5114457;28;20353;-71
2021/08/17 12:12:20;;;;;;;;;;;;;;;23.31;45.61;99666.50;5114836;28;19924;-73
2021/08/17 12:15:07;;;;;;;;;;;;;;;24.07;46.24;99651.94;5114215;28;20377;-72
2021/08/17 12:17:36;;;;;;;;;;;;;;;24.70;45.95;99651.75;5114731;28;19938;-72
2021/08/17 12:20:07;;;;;;;;;;;;;;;24.72;45.67;99647.28;5114804;28;20344;-71
2021/08/17 12:22:39;;;;;;;;;;;;;;;24.69;44.96;99653.53;5114274;28;19923;-71
2021/08/17 12:25:08;;;;;;;;;;;;;;;24.54;45.27;99641.41;5096359;28;20289;-71
2021/08/17 12:27:36;;;;;;;;;;;;;;;24.19;44.02;99645.16;5114258;28;19923;-72
2021/08/17 12:30:09;;;;;;;;;;;;;;;24.73;44.88;99636.78;5079295;28;19927;-71
2021/08/17 12:32:38;;;;;;;;;;;;;;;25.13;44.26;99628.25;5115035;28;19924;-72
2021/08/17 12:35:07;;;;;;;;;;;;;;;25.41;42.96;99618.72;5114127;28;19930;-73
2021/08/17 12:37:37;;;;;;;;;;;;;;;25.58;43.22;99621.16;5114145;28;20015;-73
2021/08/17 12:40:07;;;;;;;;;;;;;;;26.01;43.46;99609.59;5095957;28;19923;-73
2021/08/17 12:42:41;;;;;;;;;;;;;;;25.66;43.37;99603.19;5114120;28;19930;-73
2021/08/17 12:45:16;;;;;;;;;;;;;;;24.73;43.91;99602.84;5114009;28;19968;-73
2021/08/17 12:48:03;;;;;;;;;;;;;;;23.88;43.83;99602.56;5114636;28;19928;-71
2021/08/17 12:50:39;;;;;;;;;;;;;;;23.41;44.43;99593.06;5095958;28;19931;-73
2021/08/17 12:53:17;;;;;;;;;;;;;;;23.13;45.61;99604.13;5113634;28;19927;-73
2021/08/17 12:55:46;;;;;;;;;;;;;;;23.40;45.74;99605.25;5113741;28;19927;-73
2021/08/17 12:58:15;;;;;;;;;;;;;;;23.83;45.85;99612.41;5098981;28;19923;-72
2021/08/17 13:00:45;;;;;;;;;;;;;;;23.93;44.36;99605.75;5117959;28;19931;-73
2021/08/17 13:03:15;;;;;;;;;;;;;;;24.45;44.34;99606.22;5117790;28;19967;-73